createdAt,value
2022-08-06T00:00:06.422Z,99.90
2022-08-06T00:02:42.188Z,99.90
2022-08-06T00:05:17.931Z,99.90
2022-08-06T00:07:58.433Z,99.90
2022-08-06T00:10:29.717Z,99.90
2022-08-06T00:13:01.907Z,99.90
2022-08-06T00:16:10.536Z,99.90
2022-08-06T00:18:18.583Z,99.90
2022-08-06T00:20:46.706Z,99.90
2022-08-06T00:23:18.861Z,99.90
2022-08-06T00:25:53.069Z,99.90
2022-08-06T00:28:30.560Z,99.90
2022-08-06T00:31:01.131Z,99.90
2022-08-06T00:33:50.132Z,99.90
2022-08-06T00:36:24.678Z,99.90
2022-08-06T00:38:53.227Z,99.90
2022-08-06T00:41:22.408Z,99.90
2022-08-06T00:43:50.786Z,99.90
2022-08-06T00:46:21.617Z,99.90
2022-08-06T00:48:54.082Z,99.90
2022-08-06T00:55:31.922Z,99.90
2022-08-06T00:58:04.753Z,99.90
2022-08-06T01:00:38.711Z,99.90
2022-08-06T01:03:18.885Z,99.90
2022-08-06T01:06:53.204Z,99.90
2022-08-06T01:08:46.982Z,99.90
2022-08-06T01:11:16.811Z,99.90
2022-08-06T01:14:03.998Z,99.90
2022-08-06T01:16:45.908Z,99.90
2022-08-06T01:19:20.729Z,99.90
2022-08-06T01:22:31.369Z,99.90
2022-08-06T01:25:11.650Z,99.90
2022-08-06T01:28:01.195Z,99.90
2022-08-06T01:30:34.229Z,99.90
2022-08-06T01:33:24.986Z,99.90
2022-08-06T01:36:00.546Z,99.90
2022-08-06T01:38:35.927Z,99.90
2022-08-06T01:41:06.458Z,99.90
2022-08-06T01:44:05.751Z,99.90
2022-08-06T01:46:27.306Z,99.90
2022-08-06T01:48:56.155Z,99.90
2022-08-06T01:52:13.319Z,99.90
2022-08-06T01:54:14.940Z,99.90
2022-08-06T01:56:56.719Z,99.90
2022-08-06T01:59:34.536Z,99.90
2022-08-06T02:02:07.234Z,99.90
2022-08-06T02:04:41.586Z,99.90
2022-08-06T02:08:36.639Z,99.90
2022-08-06T02:10:03.902Z,99.90
2022-08-06T02:12:32.696Z,99.90
2022-08-06T02:15:08.297Z,99.90
2022-08-06T02:18:03.532Z,99.90
2022-08-06T02:20:36.945Z,99.90
2022-08-06T02:23:09.767Z,99.90
2022-08-06T02:25:42.082Z,99.90
2022-08-06T02:28:11.166Z,99.90
2022-08-06T02:30:51.162Z,99.90
2022-08-06T02:33:19.678Z,99.90
2022-08-06T02:36:20.402Z,99.90
2022-08-06T02:39:13.114Z,99.90
2022-08-06T02:41:55.169Z,99.90
2022-08-06T02:44:26.805Z,99.90
2022-08-06T02:46:59.525Z,99.90
2022-08-06T02:49:32.370Z,99.90
2022-08-06T02:52:17.673Z,99.90
2022-08-06T02:55:00.715Z,99.90
2022-08-06T02:57:48.503Z,99.90
2022-08-06T03:00:20.037Z,99.90
2022-08-06T03:02:59.126Z,99.90
2022-08-06T03:05:55.675Z,99.90
2022-08-06T03:08:20.378Z,99.90
2022-08-06T03:10:55.919Z,99.90
2022-08-06T03:13:24.261Z,99.90
2022-08-06T03:16:01.483Z,99.90
2022-08-06T03:18:29.992Z,99.90
2022-08-06T03:20:58.647Z,99.90
2022-08-06T03:23:27.721Z,99.90
2022-08-06T03:25:56.071Z,99.90
2022-08-06T03:28:24.619Z,99.90
2022-08-06T03:30:55.592Z,99.90
2022-08-06T03:33:41.641Z,99.90
2022-08-06T03:36:17.398Z,99.90
2022-08-06T03:38:54.640Z,99.90
2022-08-06T03:41:29.213Z,99.90
2022-08-06T03:44:04.568Z,99.90
2022-08-06T03:46:38.976Z,99.90
2022-08-06T03:49:11.082Z,99.90
2022-08-06T03:51:52.129Z,99.90
2022-08-06T03:54:37.243Z,99.90
2022-08-06T03:57:10.665Z,99.90
2022-08-06T03:59:57.428Z,99.90
2022-08-06T04:02:44.874Z,99.90
2022-08-06T04:05:15.432Z,99.90
2022-08-06T04:07:54.364Z,99.90
2022-08-06T04:10:33.632Z,99.90
2022-08-06T04:13:37.881Z,99.90
2022-08-06T04:15:53.101Z,99.90
2022-08-06T04:18:22.422Z,99.90
2022-08-06T04:20:53.066Z,99.90
2022-08-06T04:23:34.808Z,99.90
2022-08-06T04:26:07.996Z,99.90
2022-08-06T04:28:44.839Z,99.90
2022-08-06T04:31:57.127Z,99.90
2022-08-06T04:34:18.500Z,99.90
2022-08-06T04:36:53.990Z,99.90
2022-08-06T04:39:25.658Z,99.90
2022-08-06T04:42:07.281Z,99.90
2022-08-06T04:44:35.790Z,99.90
2022-08-06T04:47:06.030Z,99.90
2022-08-06T04:49:58.062Z,99.90
2022-08-06T04:52:45.650Z,99.90
2022-08-06T04:55:24.216Z,99.90
2022-08-06T04:57:57.271Z,99.90
2022-08-06T05:00:34.178Z,99.90
2022-08-06T05:04:06.426Z,99.90
2022-08-06T05:06:14.034Z,99.90
2022-08-06T05:08:52.247Z,99.90
2022-08-06T05:11:25.786Z,99.90
2022-08-06T05:13:59.587Z,99.90
2022-08-06T05:16:28.811Z,99.90
2022-08-06T05:19:21.298Z,99.90
2022-08-06T05:22:10.890Z,99.90
2022-08-06T05:24:39.372Z,99.90
2022-08-06T05:27:24.080Z,99.90
2022-08-06T05:29:52.627Z,99.90
2022-08-06T05:32:24.744Z,99.90
2022-08-06T05:34:53.998Z,99.90
2022-08-06T05:38:00.815Z,99.90
2022-08-06T05:40:11.971Z,99.90
2022-08-06T05:42:40.149Z,99.90
2022-08-06T05:45:13.557Z,99.90
2022-08-06T05:47:55.974Z,99.90
2022-08-06T05:50:28.908Z,99.90
2022-08-06T05:53:03.544Z,99.90
2022-08-06T05:55:38.336Z,99.90
2022-08-06T05:58:10.759Z,99.90
2022-08-06T06:00:44.119Z,99.90
2022-08-06T06:03:24.289Z,99.90
2022-08-06T06:06:06.116Z,99.90
2022-08-06T06:08:57.648Z,99.90
2022-08-06T06:11:47.111Z,99.90
2022-08-06T06:14:32.662Z,99.90
2022-08-06T06:17:07.619Z,99.90
2022-08-06T06:19:52.079Z,99.90
2022-08-06T06:22:27.670Z,99.90
2022-08-06T06:25:12.265Z,99.90
2022-08-06T06:27:45.444Z,99.90
2022-08-06T06:30:52.560Z,99.90
2022-08-06T06:33:37.043Z,99.90
2022-08-06T06:36:18.133Z,99.90
2022-08-06T06:38:56.528Z,99.90
2022-08-06T06:41:39.144Z,99.90
2022-08-06T06:44:24.317Z,99.90
2022-08-06T06:47:17.848Z,99.90
2022-08-06T06:50:03.282Z,99.90
2022-08-06T06:52:44.996Z,99.90
2022-08-06T06:55:36.343Z,99.90
2022-08-06T06:58:53.005Z,99.90
2022-08-06T07:04:30.820Z,99.90
2022-08-06T07:07:07.881Z,99.90
2022-08-06T07:09:53.542Z,99.90
2022-08-06T07:12:34.510Z,99.90
2022-08-06T07:15:18.657Z,99.90
2022-08-06T07:18:09.572Z,99.90
2022-08-06T07:20:41.412Z,99.90
2022-08-06T07:24:08.537Z,99.90
2022-08-06T07:26:01.299Z,99.90
2022-08-06T07:28:29.650Z,99.90
2022-08-06T07:31:04.684Z,99.70
2022-08-06T07:34:01.272Z,99.90
2022-08-06T07:36:29.267Z,99.90
2022-08-06T07:39:00.623Z,99.90
2022-08-06T07:41:31.854Z,99.80
2022-08-06T07:44:18.791Z,97.80
2022-08-06T07:46:52.490Z,97.40
2022-08-06T07:49:22.893Z,98.70
2022-08-06T07:52:00.232Z,97.50
2022-08-06T07:54:35.122Z,95.70
2022-08-06T07:57:03.199Z,97.20
2022-08-06T07:59:32.571Z,96.90
2022-08-06T08:02:04.871Z,94.50
2022-08-06T08:04:55.235Z,95.90
2022-08-06T08:07:37.735Z,96.60
2022-08-06T08:10:15.533Z,97.30
2022-08-06T08:12:44.941Z,98.30
2022-08-06T08:15:18.249Z,98.20
2022-08-06T08:17:57.179Z,98.80
2022-08-06T08:20:34.011Z,97.00
2022-08-06T08:23:05.406Z,96.40
2022-08-06T08:25:40.535Z,96.50
2022-08-06T08:28:12.724Z,97.10
2022-08-06T08:30:43.514Z,96.90
2022-08-06T08:33:17.742Z,97.80
2022-08-06T08:35:50.652Z,97.10
2022-08-06T08:38:30.110Z,95.60
2022-08-06T08:40:58.500Z,95.70
2022-08-06T08:43:58.565Z,96.70
2022-08-06T08:46:30.366Z,95.60
2022-08-06T08:49:01.956Z,95.80
2022-08-06T08:51:30.486Z,95.60
2022-08-06T08:54:11.851Z,95.80
2022-08-06T08:57:09.770Z,95.20
2022-08-06T08:59:59.980Z,94.20
2022-08-06T09:02:24.396Z,93.70
2022-08-06T09:04:53.340Z,93.00
2022-08-06T09:07:25.933Z,94.90
2022-08-06T09:10:04.342Z,94.00
2022-08-06T09:12:44.565Z,93.90
2022-08-06T09:15:14.576Z,92.30
2022-08-06T09:18:25.652Z,91.40
2022-08-06T09:20:35.488Z,90.80
2022-08-06T09:23:07.489Z,91.70
2022-08-06T09:25:49.423Z,91.50
2022-08-06T09:28:56.546Z,93.00
2022-08-06T09:31:30.590Z,92.10
2022-08-06T09:34:28.817Z,91.40
2022-08-06T09:37:00.133Z,91.30
2022-08-06T09:40:00.174Z,90.20
2022-08-06T09:42:40.634Z,90.90
2022-08-06T09:45:16.312Z,88.90
2022-08-06T09:47:58.834Z,89.60
2022-08-06T09:50:42.785Z,90.90
2022-08-06T09:53:14.385Z,89.70
2022-08-06T09:55:44.447Z,88.90
2022-08-06T09:58:13.075Z,90.10
2022-08-06T10:00:50.883Z,91.60
2022-08-06T10:04:04.134Z,91.40
2022-08-06T10:06:14.499Z,90.00
2022-08-06T10:08:44.291Z,90.10
2022-08-06T10:11:41.443Z,91.40
2022-08-06T10:14:29.225Z,90.20
2022-08-06T10:17:17.020Z,90.40
2022-08-06T10:19:52.616Z,88.50
2022-08-06T10:22:22.428Z,88.30
2022-08-06T10:24:58.258Z,89.10
2022-08-06T10:27:35.946Z,90.20
2022-08-06T10:30:08.994Z,89.60
2022-08-06T10:32:46.186Z,89.30
2022-08-06T10:35:18.891Z,86.80
2022-08-06T10:37:51.728Z,85.80
2022-08-06T10:40:30.636Z,85.50
2022-08-06T10:43:01.103Z,84.80
2022-08-06T10:45:48.729Z,86.30
2022-08-06T10:49:01.341Z,86.00
2022-08-06T10:51:08.085Z,86.70
2022-08-06T10:54:00.991Z,88.40
2022-08-06T10:56:40.007Z,86.40
2022-08-06T10:59:15.500Z,87.30
2022-08-06T11:01:54.979Z,86.80
2022-08-06T11:04:42.359Z,85.60
2022-08-06T11:08:14.562Z,85.90
2022-08-06T11:10:11.115Z,87.20
2022-08-06T11:13:00.367Z,84.00
2022-08-06T11:15:37.559Z,82.40
2022-08-06T11:18:12.319Z,83.70
2022-08-06T11:20:45.749Z,82.20
2022-08-06T11:23:52.829Z,84.00
2022-08-06T11:26:04.837Z,81.80
2022-08-06T11:28:33.115Z,80.90
2022-08-06T11:31:03.115Z,81.10
2022-08-06T11:33:38.453Z,82.40
2022-08-06T11:36:12.244Z,81.20
2022-08-06T11:38:55.528Z,79.50
2022-08-06T11:41:51.554Z,79.70
2022-08-06T11:44:21.494Z,79.40
2022-08-06T11:47:36.862Z,79.70
2022-08-06T11:50:10.346Z,79.90
2022-08-06T11:52:49.950Z,79.80
2022-08-06T11:55:22.499Z,80.30
2022-08-06T11:58:17.249Z,77.30
2022-08-06T12:01:03.604Z,78.10
2022-08-06T12:03:57.401Z,76.80
2022-08-06T12:09:49.631Z,76.10
2022-08-06T12:13:42.803Z,76.00
2022-08-06T12:16:35.566Z,77.60
2022-08-06T12:19:24.365Z,77.50
2022-08-06T12:21:59.203Z,76.80
2022-08-06T12:24:51.584Z,72.60
2022-08-06T12:27:25.399Z,72.40
2022-08-06T12:29:59.575Z,74.00
2022-08-06T12:32:30.844Z,71.30
2022-08-06T12:35:04.554Z,73.70
2022-08-06T12:37:48.144Z,74.50
2022-08-06T12:40:26.795Z,71.40
2022-08-06T12:43:02.839Z,71.30
2022-08-06T12:46:07.408Z,73.10
2022-08-06T12:48:28.273Z,71.80
2022-08-06T12:51:18.473Z,72.00
2022-08-06T12:53:58.721Z,72.50
2022-08-06T12:56:32.017Z,70.30
2022-08-06T12:59:06.373Z,69.40
2022-08-06T13:02:08.849Z,69.30
2022-08-06T13:04:44.610Z,68.40
2022-08-06T13:07:40.790Z,68.90
2022-08-06T13:10:35.223Z,68.60
2022-08-06T13:16:09.134Z,68.80
2022-08-06T13:18:47.639Z,67.80
2022-08-06T13:21:57.790Z,66.90
2022-08-06T13:25:01.674Z,66.30
2022-08-06T13:27:35.499Z,66.10
2022-08-06T13:30:33.808Z,66.40
2022-08-06T13:34:04.253Z,66.10
2022-08-06T13:36:40.882Z,64.50
2022-08-06T13:42:20.733Z,64.60
2022-08-06T13:45:57.174Z,64.60
2022-08-06T13:48:12.892Z,65.40
2022-08-06T13:50:55.585Z,64.30
2022-08-06T13:54:13.926Z,64.20
2022-08-06T14:03:18.126Z,65.40
2022-08-06T14:05:57.825Z,71.20
2022-08-06T14:08:35.777Z,64.40
2022-08-06T14:11:04.730Z,64.70
2022-08-06T14:13:34.600Z,66.90
2022-08-06T14:16:04.627Z,66.90
2022-08-06T14:28:33.553Z,63.30
2022-08-06T14:34:04.227Z,65.00
2022-08-06T14:36:37.717Z,64.30
2022-08-06T14:39:57.280Z,63.00
2022-08-06T14:45:39.424Z,64.20
2022-08-06T14:48:11.473Z,65.30
2022-08-06T14:53:37.803Z,64.00
2022-08-06T14:56:12.053Z,66.40
2022-08-06T15:01:38.184Z,64.30
2022-08-06T15:29:34.700Z,62.70
2022-08-06T15:32:08.575Z,62.60
2022-08-06T15:34:49.934Z,62.10
2022-08-06T15:37:55.263Z,64.10
2022-08-06T15:40:13.006Z,62.90
2022-08-06T15:42:42.911Z,62.80
2022-08-06T15:45:16.993Z,63.70
2022-08-06T15:48:05.731Z,65.00
2022-08-06T15:50:43.045Z,64.80
2022-08-06T15:53:23.327Z,64.20
2022-08-06T15:55:52.008Z,62.10
2022-08-06T15:58:28.753Z,60.30
2022-08-06T16:01:08.466Z,65.40
2022-08-06T16:03:37.749Z,61.80
2022-08-06T16:06:25.977Z,62.00
2022-08-06T16:08:59.999Z,62.70
2022-08-06T16:11:28.444Z,63.10
2022-08-06T16:14:19.682Z,63.80
2022-08-06T16:16:48.982Z,63.70
2022-08-06T16:19:20.980Z,66.00
2022-08-06T16:21:52.782Z,65.40
2022-08-06T16:24:20.781Z,65.30
2022-08-06T16:26:57.328Z,65.00
2022-08-06T16:29:26.880Z,65.20
2022-08-06T16:31:55.337Z,66.90
2022-08-06T16:34:30.085Z,65.00
2022-08-06T16:37:28.162Z,65.60
2022-08-06T16:40:00.271Z,65.80
2022-08-06T16:42:30.172Z,65.20
2022-08-06T16:45:09.901Z,67.90
2022-08-06T16:48:20.551Z,65.30
2022-08-06T16:50:35.718Z,66.50
2022-08-06T16:54:07.608Z,66.80
2022-08-06T16:55:54.902Z,66.10
2022-08-06T17:02:14.473Z,65.80
2022-08-06T17:04:00.424Z,67.00
2022-08-06T17:06:47.323Z,65.40
2022-08-06T17:12:03.946Z,65.50
2022-08-06T17:14:34.858Z,66.30
2022-08-06T17:19:55.774Z,65.30
2022-08-06T17:22:30.760Z,65.00
2022-08-06T17:24:59.299Z,65.70
2022-08-06T17:27:44.692Z,63.80
2022-08-06T17:30:17.020Z,65.30
2022-08-06T17:32:54.579Z,64.00
2022-08-06T17:35:23.549Z,64.20
2022-08-06T17:38:16.189Z,64.40
2022-08-06T17:40:49.505Z,67.90
2022-08-06T17:43:22.762Z,64.70
2022-08-06T17:46:26.692Z,65.10
2022-08-06T17:48:54.598Z,64.00
2022-08-06T17:51:22.664Z,65.70
2022-08-06T17:53:53.934Z,66.30
2022-08-06T17:56:30.117Z,64.70
2022-08-06T17:59:17.778Z,64.80
2022-08-06T18:01:50.395Z,66.50
2022-08-06T18:04:22.169Z,65.20
2022-08-06T18:06:58.661Z,65.80
2022-08-06T18:10:08.786Z,66.00
2022-08-06T18:12:18.497Z,66.20
2022-08-06T18:14:52.093Z,66.40
2022-08-06T18:17:20.524Z,67.40
2022-08-06T18:19:48.377Z,67.50
2022-08-06T18:22:22.831Z,67.60
2022-08-06T18:24:54.806Z,67.20
2022-08-06T18:27:52.953Z,68.90
2022-08-06T18:30:36.485Z,68.90
2022-08-06T18:33:08.118Z,68.10
2022-08-06T18:35:55.128Z,67.50
2022-08-06T18:38:31.425Z,68.70
2022-08-06T18:41:14.337Z,69.40
2022-08-06T18:43:53.837Z,70.40
2022-08-06T18:46:56.799Z,71.00
2022-08-06T18:49:26.914Z,69.30
2022-08-06T18:52:22.978Z,70.30
2022-08-06T18:54:56.489Z,70.30
2022-08-06T18:57:37.976Z,70.60
2022-08-06T19:00:18.694Z,71.30
2022-08-06T19:02:49.073Z,70.50
2022-08-06T19:05:26.883Z,70.00
2022-08-06T19:07:58.796Z,70.30
2022-08-06T19:10:28.316Z,72.20
2022-08-06T19:12:56.830Z,72.00
2022-08-06T19:15:46.856Z,72.00
2022-08-06T19:18:17.408Z,71.00
2022-08-06T19:20:46.454Z,71.40
2022-08-06T19:24:00.249Z,72.00
2022-08-06T19:26:12.439Z,72.40
2022-08-06T19:28:49.622Z,73.40
2022-08-06T19:31:23.359Z,74.40
2022-08-06T19:34:10.033Z,73.50
2022-08-06T19:36:37.904Z,73.60
2022-08-06T19:39:51.969Z,75.00
2022-08-06T19:41:55.212Z,73.80
2022-08-06T19:44:35.895Z,74.10
2022-08-06T19:47:15.479Z,74.70
2022-08-06T19:49:52.729Z,74.70
2022-08-06T19:52:21.226Z,74.90
2022-08-06T19:54:54.318Z,74.70
2022-08-06T19:57:30.154Z,75.00
2022-08-06T20:00:51.661Z,75.40
2022-08-06T20:02:50.789Z,75.60
2022-08-06T20:05:21.931Z,76.20
2022-08-06T20:08:33.001Z,76.10
2022-08-06T20:10:59.004Z,76.30
2022-08-06T20:13:26.883Z,77.50
2022-08-06T20:15:56.888Z,77.60
2022-08-06T20:18:25.438Z,77.70
2022-08-06T20:20:58.251Z,77.80
2022-08-06T20:23:40.521Z,78.20
2022-08-06T20:26:34.438Z,77.50
2022-08-06T20:29:09.654Z,78.40
2022-08-06T20:31:45.883Z,77.50
2022-08-06T20:34:27.584Z,78.10
2022-08-06T20:36:57.542Z,78.50
2022-08-06T20:39:28.220Z,78.70
2022-08-06T20:42:07.306Z,78.30
2022-08-06T20:44:39.288Z,79.30
2022-08-06T20:47:45.184Z,79.40
2022-08-06T20:50:04.584Z,78.90
2022-08-06T20:52:33.684Z,79.30
2022-08-06T20:55:04.420Z,78.90
2022-08-06T20:57:41.772Z,79.60
2022-08-06T21:00:24.264Z,80.00
2022-08-06T21:03:28.938Z,80.20
2022-08-06T21:05:51.188Z,79.60
2022-08-06T21:08:26.668Z,80.90
2022-08-06T21:11:00.332Z,79.90
2022-08-06T21:13:29.676Z,80.40
2022-08-06T21:16:14.848Z,80.60
2022-08-06T21:18:58.344Z,81.10
2022-08-06T21:21:32.004Z,80.90
2022-08-06T21:24:00.836Z,81.00
2022-08-06T21:26:29.765Z,80.90
2022-08-06T21:30:07.595Z,80.70
2022-08-06T21:31:53.162Z,80.90
2022-08-06T21:34:22.745Z,81.30
2022-08-06T21:36:50.646Z,81.90
2022-08-06T21:39:20.180Z,81.40
2022-08-06T21:41:59.256Z,82.70
2022-08-06T21:44:30.363Z,82.50
2022-08-06T21:47:00.488Z,82.40
2022-08-06T21:49:58.610Z,82.90
2022-08-06T21:52:28.350Z,82.40
2022-08-06T21:55:05.512Z,83.10
2022-08-06T21:57:47.872Z,83.10
2022-08-06T22:00:34.354Z,82.60
2022-08-06T22:03:06.894Z,83.10
2022-08-06T22:06:21.190Z,83.00
2022-08-06T22:08:24.615Z,84.10
2022-08-06T22:12:39.379Z,84.00
2022-08-06T22:13:57.116Z,83.60
2022-08-06T22:16:32.888Z,83.40
2022-08-06T22:19:02.650Z,83.80
2022-08-06T22:21:41.670Z,84.30
2022-08-06T22:24:23.483Z,84.00
2022-08-06T22:26:55.657Z,84.30
2022-08-06T22:29:26.716Z,84.20
2022-08-06T22:32:00.475Z,84.80
2022-08-06T22:34:36.078Z,84.20
2022-08-06T22:37:05.562Z,84.30
2022-08-06T22:39:38.737Z,84.10
2022-08-06T22:42:08.767Z,84.90
2022-08-06T22:45:21.527Z,85.10
2022-08-06T22:47:33.528Z,84.30
2022-08-06T22:50:11.295Z,84.80
2022-08-06T22:53:01.895Z,85.20
2022-08-06T22:55:28.491Z,85.10
2022-08-06T22:58:48.507Z,84.70
2022-08-06T23:00:48.159Z,84.70
2022-08-06T23:03:16.326Z,84.60
2022-08-06T23:05:47.063Z,85.50
2022-08-06T23:08:18.219Z,85.50
2022-08-06T23:10:48.903Z,85.20
2022-08-06T23:13:25.670Z,85.30
2022-08-06T23:15:58.135Z,86.40
2022-08-06T23:18:28.548Z,85.80
2022-08-06T23:21:22.003Z,86.10
2022-08-06T23:23:55.485Z,86.10
2022-08-06T23:26:32.047Z,86.10
2022-08-06T23:29:08.419Z,86.70
2022-08-06T23:31:37.824Z,86.30
2022-08-06T23:34:21.025Z,86.90
2022-08-06T23:36:57.491Z,87.10
2022-08-06T23:39:28.954Z,87.20
2022-08-06T23:42:05.033Z,86.80
2022-08-06T23:44:36.945Z,87.40
2022-08-06T23:47:55.557Z,87.70
2022-08-06T23:49:58.509Z,87.60
2022-08-06T23:52:26.543Z,87.00
2022-08-06T23:54:59.649Z,87.60
2022-08-06T23:57:47.984Z,87.40
